Flugplatz Dortmund

Bericht für EDLW

vom 24.02. um 00:50 UTC

Wind 12 kt aus 70°

Sichtweite 10 km oder mehr

keine Wolken

Temperatur -4.0°C

Taupunkt -11.0°C

Luftfeuchtigkeit 58%

Luftdruck 1023 hPa

EDLW 240050Z AUTO 07012KT 9999 // NCD M04/M11 Q1023

Prognose für EDLW

vom 23.02. um 17:00 UTC

Am 23.02. zwischen 18:00 UTC und 08:00 UTC

Wind 9 kt aus 70°

Sichtweite 10 km oder mehr

keine signifikanten Wettererscheinungen

keine Wolken


Zwischen 08:00 und 10:00 UTC übergehend zu

Wind 14 kt aus 70°

Sichtweite 10 km oder mehr

keine signifikanten Wettererscheinungen

keine Wolken


Zwischen 10:00 UTC und 16:00 UTC zeitweise

Wind 15 kt aus 70° in Böen 25 kt

TAF EDLW 231700Z 2318/2418 07009KT CAVOK BECMG 2408/2410 07014KT TEMPO 2410/2416 07015G25KT
Impressum